Time;durP1;ratioP1;P1;durP2;ratioP2;P2;SDS_P1;SDS_P2;PMS_P1;PMS_P2;Temp;Humidity;BMP_temperature;BMP_pressure;BME280_temperature;BME280_humidity;BME280_pressure;Samples;Min_cycle;Max_cycle;Signal;HPM_P1;HPM_P2
2023/10/14 00:02:25;;;;;;;7.90;2.95;;;;;;;19.39;59.38;99624.53;7395616;19;20071;-68
2023/10/14 00:04:55;;;;;;;7.20;3.33;;;;;;;19.41;59.36;99629.75;7394671;19;20024;-67
2023/10/14 00:07:27;;;;;;;8.82;3.45;;;;;;;19.43;59.18;99643.78;7394891;19;20015;-69
2023/10/14 00:09:58;;;;;;;7.63;3.35;;;;;;;19.45;59.96;99644.50;7395527;19;20018;-68
2023/10/14 00:12:28;;;;;;;12.98;3.55;;;;;;;19.45;60.07;99653.34;7395541;19;20011;-68
2023/10/14 00:15:03;;;;;;;10.52;4.03;;;;;;;19.44;60.34;99645.47;7393294;19;20010;-67
2023/10/14 00:17:36;;;;;;;6.60;3.15;;;;;;;19.39;61.03;99643.16;7394400;19;20033;-68
2023/10/14 00:20:05;;;;;;;8.35;3.20;;;;;;;19.34;61.64;99656.78;7393833;19;20377;-68
2023/10/14 00:22:44;;;;;;;9.00;2.92;;;;;;;19.26;62.44;99651.22;7394821;19;20007;-68
2023/10/14 00:25:19;;;;;;;6.70;3.33;;;;;;;19.18;62.56;99653.59;7402783;19;20014;-68
2023/10/14 00:27:50;;;;;;;8.43;3.17;;;;;;;19.08;63.29;99661.41;7401107;19;20035;-67
2023/10/14 00:30:20;;;;;;;10.15;3.42;;;;;;;18.97;63.42;99659.56;7399504;19;20037;-68
2023/10/14 00:32:48;;;;;;;9.52;3.45;;;;;;;18.86;63.88;99672.78;7399333;19;20011;-68
2023/10/14 00:35:18;;;;;;;11.43;3.80;;;;;;;18.76;65.03;99669.09;7402003;19;20070;-68
2023/10/14 00:37:52;;;;;;;8.52;3.58;;;;;;;18.65;65.95;99653.94;7401413;19;20014;-67
2023/10/14 00:40:22;;;;;;;15.50;4.13;;;;;;;18.51;67.60;99639.00;7400795;19;20430;-68
2023/10/14 00:42:51;;;;;;;7.35;4.10;;;;;;;18.34;68.03;99625.13;7398902;19;20019;-68
2023/10/14 00:45:20;;;;;;;7.68;3.88;;;;;;;18.17;69.57;99612.22;7401552;19;20014;-68
2023/10/14 00:47:51;;;;;;;8.68;3.58;;;;;;;18.02;71.01;99630.06;7400129;19;20022;-67
2023/10/14 00:50:32;;;;;;;7.57;3.55;;;;;;;17.87;71.43;99614.25;7401088;19;20082;-68
2023/10/14 00:53:05;;;;;;;7.25;3.60;;;;;;;17.70;72.52;99619.91;7401798;19;20021;-67
2023/10/14 00:55:45;;;;;;;9.73;4.23;;;;;;;17.57;73.17;99607.47;7401698;19;20037;-68
2023/10/14 00:58:20;;;;;;;7.93;3.92;;;;;;;17.47;73.62;99602.94;7398690;19;20570;-68
2023/10/14 01:00:59;;;;;;;7.25;3.90;;;;;;;17.39;74.29;99595.50;7400134;19;20014;-68
2023/10/14 01:03:30;;;;;;;8.13;4.32;;;;;;;17.32;75.37;99591.56;7401478;19;20066;-68
2023/10/14 01:06:06;;;;;;;8.95;4.20;;;;;;;17.24;75.53;99602.72;7397771;19;20010;-68
2023/10/14 01:08:42;;;;;;;11.38;4.75;;;;;;;17.19;76.32;99592.41;7398896;19;20028;-68
2023/10/14 01:11:11;;;;;;;10.57;4.10;;;;;;;17.15;76.36;99592.69;7400454;19;20011;-67
2023/10/14 01:13:39;;;;;;;7.28;4.07;;;;;;;17.13;76.59;99578.72;7401432;19;20018;-69
2023/10/14 01:16:12;;;;;;;6.95;4.70;;;;;;;17.09;76.67;99575.44;7400288;19;20032;-68
2023/10/14 01:18:41;;;;;;;13.88;4.30;;;;;;;17.07;77.05;99559.66;7398067;19;20007;-68
2023/10/14 01:21:10;;;;;;;7.75;4.38;;;;;;;17.07;77.05;99542.88;7397469;19;20011;-69
2023/10/14 01:23:45;;;;;;;5.90;3.90;;;;;;;17.07;77.03;99549.03;7399921;19;20502;-66
2023/10/14 01:26:14;;;;;;;9.95;4.13;;;;;;;17.09;76.87;99525.09;7400768;19;20013;-69
2023/10/14 01:28:47;;;;;;;7.70;3.90;;;;;;;17.12;76.89;99516.91;7398101;19;20011;-67
2023/10/14 01:31:43;;;;;;;9.95;4.32;;;;;;;17.16;76.74;99521.06;7398039;19;20010;-68
2023/10/14 01:34:24;;;;;;;10.00;3.50;;;;;;;17.20;76.34;99517.25;7397303;19;20070;-67
2023/10/14 01:36:53;;;;;;;6.15;3.72;;;;;;;17.28;75.79;99522.00;7399384;19;20371;-67
2023/10/14 01:39:26;;;;;;;9.00;4.10;;;;;;;17.33;75.63;99517.25;7397534;19;20476;-67
2023/10/14 01:41:56;;;;;;;10.25;4.07;;;;;;;17.38;75.61;99520.41;7398046;19;20033;-67
2023/10/14 01:44:26;;;;;;;10.15;3.95;;;;;;;17.44;75.53;99513.84;7399438;19;20014;-68
2023/10/14 01:46:55;;;;;;;8.07;3.30;;;;;;;17.51;75.14;99508.97;7398914;19;20022;-67
2023/10/14 01:49:27;;;;;;;9.13;3.88;;;;;;;17.55;74.94;99505.13;7399994;19;20010;-67
2023/10/14 01:51:57;;;;;;;12.45;3.75;;;;;;;17.59;74.98;99485.38;7399163;19;20024;-68
2023/10/14 01:54:28;;;;;;;6.97;3.72;;;;;;;17.62;74.57;99479.88;7399356;19;20014;-68
2023/10/14 01:56:56;;;;;;;8.23;3.83;;;;;;;17.63;74.54;99476.28;7398565;19;20089;-67
2023/10/14 01:59:27;;;;;;;7.45;3.55;;;;;;;17.64;74.56;99456.75;7399150;19;20081;-67
2023/10/14 02:01:57;;;;;;;5.93;3.38;;;;;;;17.66;74.17;99453.97;7397576;19;20011;-66
2023/10/14 02:04:26;;;;;;;8.77;3.70;;;;;;;17.69;74.34;99437.84;7399371;19;20015;-68
2023/10/14 02:07:17;;;;;;;7.65;3.85;;;;;;;17.71;73.83;99442.06;7397473;19;20015;-68
2023/10/14 02:09:48;;;;;;;6.50;3.53;;;;;;;17.75;73.58;99440.91;7399382;19;20349;-68
2023/10/14 02:12:18;;;;;;;6.90;4.10;;;;;;;17.79;74.16;99446.81;7396274;19;20074;-67
2023/10/14 02:14:57;;;;;;;9.32;3.97;;;;;;;17.81;73.71;99444.91;7398749;19;20477;-67
2023/10/14 02:17:26;;;;;;;7.60;3.85;;;;;;;17.82;73.63;99436.00;7397908;19;20014;-68
2023/10/14 02:19:54;;;;;;;7.65;3.70;;;;;;;17.85;73.11;99419.00;7396421;19;20026;-69
2023/10/14 02:22:24;;;;;;;6.43;3.83;;;;;;;17.88;73.10;99422.28;7396394;19;20015;-68
2023/10/14 02:24:57;;;;;;;11.32;3.83;;;;;;;17.94;72.31;99425.47;7397941;19;20074;-68
2023/10/14 02:27:26;;;;;;;11.68;4.53;;;;;;;17.98;72.44;99424.28;7397962;19;20086;-68
2023/10/14 02:29:57;;;;;;;11.27;4.88;;;;;;;18.01;72.47;99421.44;7395864;19;20576;-68
2023/10/14 02:32:26;;;;;;;8.23;3.83;;;;;;;18.04;72.42;99413.22;7396559;19;20176;-68
2023/10/14 02:34:55;;;;;;;8.73;4.15;;;;;;;18.06;72.22;99414.81;7397966;19;20378;-68
2023/10/14 02:37:24;;;;;;;6.30;3.97;;;;;;;18.09;72.21;99416.38;7397300;19;20018;-68
2023/10/14 02:40:06;;;;;;;10.25;4.10;;;;;;;18.12;70.94;99415.31;7397797;19;20018;-68
2023/10/14 02:42:42;;;;;;;6.38;3.58;;;;;;;18.18;72.34;99414.84;7396108;19;20022;-68
2023/10/14 02:45:12;;;;;;;7.50;3.75;;;;;;;18.20;71.95;99405.81;7395127;19;20178;-68
2023/10/14 02:47:41;;;;;;;9.88;4.10;;;;;;;18.22;71.49;99401.25;7394081;19;20014;-68
2023/10/14 02:50:12;;;;;;;8.57;3.97;;;;;;;18.21;71.48;99406.63;7397036;19;20414;-68
2023/10/14 02:52:48;;;;;;;8.30;4.07;;;;;;;18.22;71.50;99406.56;7395975;19;20017;-68
2023/10/14 02:55:25;;;;;;;7.15;3.95;;;;;;;18.23;71.64;99402.06;7395946;19;20015;-68
2023/10/14 02:57:54;;;;;;;11.20;4.47;;;;;;;18.21;71.20;99396.88;7396528;19;20018;-68
2023/10/14 03:00:32;;;;;;;9.32;4.30;;;;;;;18.21;71.06;99396.88;7394801;19;20010;-68
2023/10/14 03:03:04;;;;;;;8.73;4.75;;;;;;;18.19;71.36;99397.97;7397014;19;20381;-70
2023/10/14 03:05:41;;;;;;;8.15;3.55;;;;;;;18.18;71.46;99401.56;7396504;19;20015;-69
2023/10/14 03:08:12;;;;;;;9.18;4.45;;;;;;;18.15;71.64;99396.50;7395683;19;20011;-69
2023/10/14 03:10:45;;;;;;;10.23;4.35;;;;;;;18.12;71.32;99391.41;7397176;19;20386;-69
2023/10/14 03:13:14;;;;;;;12.20;4.38;;;;;;;18.08;71.75;99390.78;7397089;19;20070;-69
2023/10/14 03:15:45;;;;;;;7.80;4.00;;;;;;;18.05;71.59;99393.69;7396663;19;20074;-69
2023/10/14 03:18:17;;;;;;;5.30;3.85;;;;;;;18.03;71.43;99398.25;7395419;19;20018;-69
2023/10/14 03:20:58;;;;;;;11.60;4.38;;;;;;;18.00;71.25;99395.84;7396274;19;20027;-69
2023/10/14 03:23:28;;;;;;;8.50;4.18;;;;;;;17.97;71.51;99399.56;7396960;19;20014;-69
2023/10/14 03:26:10;;;;;;;8.70;4.20;;;;;;;17.94;71.54;99394.47;7396342;19;20011;-69
2023/10/14 03:28:39;;;;;;;6.50;3.60;;;;;;;17.91;71.12;99389.38;7394536;19;20121;-69
2023/10/14 03:31:08;;;;;;;7.68;3.70;;;;;;;17.87;71.08;99387.91;7394901;19;20033;-69
2023/10/14 03:33:43;;;;;;;9.13;3.83;;;;;;;17.83;71.28;99383.78;7395739;19;20020;-69
2023/10/14 03:36:15;;;;;;;7.07;4.03;;;;;;;17.79;71.54;99377.84;7394363;19;20017;-69
2023/10/14 03:38:46;;;;;;;8.57;4.30;;;;;;;17.75;71.19;99374.59;7394601;19;20019;-69
2023/10/14 03:41:21;;;;;;;5.75;3.60;;;;;;;17.72;71.16;99379.28;7395749;19;20021;-69
2023/10/14 03:43:54;;;;;;;8.52;4.45;;;;;;;17.68;71.41;99369.84;7396121;19;20085;-69
2023/10/14 03:46:30;;;;;;;6.80;3.80;;;;;;;17.66;71.30;99372.59;7395349;19;20010;-69
2023/10/14 03:48:58;;;;;;;8.15;3.75;;;;;;;17.65;70.75;99370.06;7394045;19;20014;-69
2023/10/14 03:51:28;;;;;;;7.40;4.25;;;;;;;17.63;70.63;99359.59;7393848;19;20011;-69
2023/10/14 03:53:57;;;;;;;7.25;3.78;;;;;;;17.63;70.41;99354.28;7393839;19;20031;-69
2023/10/14 03:56:29;;;;;;;6.10;3.50;;;;;;;17.61;69.95;99342.09;7395459;19;20028;-69
2023/10/14 03:59:00;;;;;;;8.13;3.35;;;;;;;17.62;70.11;99344.63;7393230;19;20007;-69
2023/10/14 04:01:34;;;;;;;7.32;3.58;;;;;;;17.63;69.32;99337.50;7394247;19;20037;-69
2023/10/14 04:04:16;;;;;;;6.32;3.53;;;;;;;17.63;69.41;99338.38;7394897;19;20399;-69
2023/10/14 04:06:51;;;;;;;6.78;3.33;;;;;;;17.64;68.82;99334.75;7393170;19;20017;-69
2023/10/14 04:09:24;;;;;;;5.95;3.35;;;;;;;17.63;68.49;99329.53;7395059;19;20011;-69
2023/10/14 04:11:58;;;;;;;6.82;3.72;;;;;;;17.62;68.44;99320.75;7395288;19;20022;-69
2023/10/14 04:14:27;;;;;;;8.70;3.92;;;;;;;17.62;68.51;99318.09;7395492;19;20007;-69
2023/10/14 04:17:09;;;;;;;6.65;3.65;;;;;;;17.62;68.46;99319.91;7394527;19;20014;-70
2023/10/14 04:19:47;;;;;;;7.93;4.03;;;;;;;17.62;67.94;99323.41;7394495;19;20373;-69
2023/10/14 04:22:31;;;;;;;5.28;3.58;;;;;;;17.61;68.56;99324.38;7393892;19;20021;-69
2023/10/14 04:25:18;;;;;;;10.65;4.57;;;;;;;17.60;68.07;99320.00;7395183;19;20015;-68
2023/10/14 04:28:17;;;;;;;6.85;3.40;;;;;;;17.62;67.92;99320.75;7393292;19;20031;-69
2023/10/14 04:30:46;;;;;;;8.45;3.22;;;;;;;17.62;68.04;99318.09;7392696;19;20039;-69
2023/10/14 04:33:25;;;;;;;13.52;4.40;;;;;;;17.65;67.64;99327.63;7394491;19;20380;-68
2023/10/14 04:36:18;;;;;;;9.07;4.65;;;;;;;17.69;67.69;99323.78;7392148;19;20011;-69
2023/10/14 04:39:04;;;;;;;8.75;3.60;;;;;;;17.76;67.78;99322.38;7392166;19;20477;-69
2023/10/14 04:41:36;;;;;;;12.10;4.20;;;;;;;17.83;67.07;99313.00;7393902;19;20010;-69
2023/10/14 04:44:11;;;;;;;11.98;4.47;;;;;;;17.91;67.05;99329.19;7394173;19;20015;-69
2023/10/14 04:46:51;;;;;;;7.85;4.20;;;;;;;17.99;66.91;99322.50;7394552;19;20052;-68
2023/10/14 04:49:29;;;;;;;10.13;4.55;;;;;;;18.06;66.77;99316.59;7394407;19;20442;-68
2023/10/14 04:51:58;;;;;;;7.32;4.00;;;;;;;18.15;66.43;99323.03;7393590;19;20039;-68
2023/10/14 04:54:27;;;;;;;7.57;3.58;;;;;;;18.21;66.26;99313.75;7393874;19;20010;-69
2023/10/14 04:56:57;;;;;;;7.10;4.00;;;;;;;18.27;66.19;99309.78;7393563;19;20031;-68
2023/10/14 04:59:30;;;;;;;9.82;4.03;;;;;;;18.33;65.64;99319.94;7393607;19;20007;-69
2023/10/14 05:01:58;;;;;;;9.57;4.00;;;;;;;18.37;65.67;99316.94;7392045;19;20429;-68
2023/10/14 05:04:30;;;;;;;8.98;4.07;;;;;;;18.42;65.48;99323.69;7393364;19;20074;-68
2023/10/14 05:07:05;;;;;;;10.00;3.80;;;;;;;18.47;64.98;99316.22;7390338;19;20011;-68
2023/10/14 05:09:39;;;;;;;10.70;3.95;;;;;;;18.52;64.75;99329.97;7396442;19;20015;-69
2023/10/14 05:12:09;;;;;;;10.63;4.32;;;;;;;18.57;65.57;99362.34;7401195;19;20014;-69
2023/10/14 05:14:42;;;;;;;8.93;4.70;;;;;;;18.59;67.15;99429.47;7400801;19;20369;-69
2023/10/14 05:17:16;;;;;;;7.60;4.38;;;;;;;18.49;69.50;99478.94;7399638;19;20381;-68
2023/10/14 05:19:47;;;;;;;7.20;3.85;;;;;;;18.09;72.27;99535.81;7400616;19;20010;-68
2023/10/14 05:22:18;;;;;;;7.15;3.08;;;;;;;17.66;74.73;99531.72;7399438;19;20015;-68
2023/10/14 05:24:52;;;;;;;4.90;2.90;;;;;;;17.20;78.06;99540.22;7400826;19;20020;-67
2023/10/14 05:27:21;;;;;;;4.72;2.28;;;;;;;16.71;81.59;99521.41;7399029;19;20044;-67
2023/10/14 05:29:53;;;;;;;4.97;1.73;;;;;;;16.31;81.96;99526.66;7400044;19;20094;-67
2023/10/14 05:32:30;;;;;;;6.18;2.13;;;;;;;15.99;83.42;99532.25;7400360;19;20010;-69
2023/10/14 05:34:59;;;;;;;4.30;1.50;;;;;;;15.72;85.12;99527.72;7400330;19;20010;-68
2023/10/14 05:37:27;;;;;;;2.00;1.00;;;;;;;15.50;86.37;99541.41;7398698;19;20018;-68
2023/10/14 05:39:56;;;;;;;2.55;1.33;;;;;;;15.31;87.82;99537.25;7397458;19;20022;-68
2023/10/14 05:42:25;;;;;;;2.08;0.93;;;;;;;15.15;88.32;99553.19;7398403;19;20029;-69
2023/10/14 05:45:01;;;;;;;3.28;0.88;;;;;;;15.03;88.89;99540.72;7397038;19;20462;-69
2023/10/14 05:47:31;;;;;;;1.23;0.88;;;;;;;14.91;89.49;99546.72;7398939;19;20051;-68
2023/10/14 05:50:00;;;;;;;1.48;0.80;;;;;;;14.82;90.91;99570.09;7399064;19;20014;-69
2023/10/14 05:52:28;;;;;;;2.55;0.90;;;;;;;14.74;92.65;99582.88;7399013;19;20483;-67
2023/10/14 05:54:57;;;;;;;1.83;0.88;;;;;;;14.69;94.72;99595.50;7399178;19;20028;-67
2023/10/14 05:57:29;;;;;;;2.88;0.95;;;;;;;14.63;94.81;99614.28;7398507;19;20021;-67
2023/10/14 06:00:01;;;;;;;4.53;0.80;;;;;;;14.57;96.28;99618.13;7399793;19;20011;-67
2023/10/14 06:02:29;;;;;;;3.63;0.85;;;;;;;14.55;97.36;99621.81;7398190;19;20036;-66
2023/10/14 06:04:58;;;;;;;1.85;0.80;;;;;;;14.50;97.51;99643.16;7396751;19;20018;-67
2023/10/14 06:07:26;;;;;;;4.38;0.82;;;;;;;14.47;98.47;99665.28;7397053;19;20418;-68
2023/10/14 06:09:55;;;;;;;1.35;0.77;;;;;;;14.45;99.46;99671.59;7396701;19;20090;-68
2023/10/14 06:12:23;;;;;;;0.88;0.65;;;;;;;14.41;100.00;99696.44;7398705;19;20010;-67
2023/10/14 06:14:52;;;;;;;1.50;0.70;;;;;;;14.28;95.31;99722.63;7398746;19;20023;-67
2023/10/14 06:17:23;;;;;;;1.13;0.55;;;;;;;14.14;95.14;99720.72;7398019;19;20014;-67
2023/10/14 06:19:53;;;;;;;0.88;0.45;;;;;;;13.97;95.16;99716.34;7395997;19;20078;-68
2023/10/14 06:22:22;;;;;;;2.22;0.70;;;;;;;13.82;95.36;99755.75;7396026;19;20101;-68
2023/10/14 06:24:50;;;;;;;2.42;0.80;;;;;;;13.64;95.18;99754.06;7398085;19;20045;-68
2023/10/14 06:27:24;;;;;;;0.63;0.60;;;;;;;13.48;95.38;99753.97;7397693;19;20078;-67
2023/10/14 06:29:55;;;;;;;2.45;0.70;;;;;;;13.34;95.85;99780.94;7398637;19;20039;-68
2023/10/14 06:32:26;;;;;;;2.50;0.70;;;;;;;13.22;95.39;99824.56;7397741;19;20588;-69
2023/10/14 06:35:02;;;;;;;5.35;0.90;;;;;;;13.13;95.53;99817.94;7398322;19;20011;-69
2023/10/14 06:37:40;;;;;;;2.42;0.52;;;;;;;13.02;95.15;99813.16;7397370;19;20010;-68
2023/10/14 06:40:11;;;;;;;1.13;0.50;;;;;;;12.92;94.33;99819.78;7398271;19;20047;-68
2023/10/14 06:42:43;;;;;;;2.60;0.57;;;;;;;12.85;96.05;99829.75;7396132;19;20019;-68
2023/10/14 06:45:13;;;;;;;1.65;0.68;;;;;;;12.76;96.63;99835.41;7395431;19;20003;-68
2023/10/14 06:47:57;;;;;;;3.00;0.82;;;;;;;12.63;97.09;99827.22;7396931;19;20018;-68
2023/10/14 06:50:26;;;;;;;4.17;1.77;;;;;;;12.50;97.28;99840.09;7396119;19;20014;-68
2023/10/14 06:52:58;;;;;;;3.20;0.98;;;;;;;12.45;98.13;99852.59;7396971;19;20007;-68
2023/10/14 06:55:27;;;;;;;2.28;1.10;;;;;;;12.39;98.93;99863.38;7397778;19;20007;-68
2023/10/14 06:57:56;;;;;;;6.15;1.60;;;;;;;12.34;99.74;99874.09;7395744;19;20091;-68
2023/10/14 07:00:29;;;;;;;2.78;0.88;;;;;;;12.30;99.74;99879.56;7396488;19;20007;-67
2023/10/14 07:03:12;;;;;;;3.22;1.85;;;;;;;12.25;100.00;99866.59;7395770;19;20014;-68
2023/10/14 07:05:46;;;;;;;3.80;1.15;;;;;;;12.22;100.00;99870.22;7396084;19;20414;-68
2023/10/14 07:08:15;;;;;;;6.15;1.50;;;;;;;12.19;100.00;99878.22;7394919;19;20010;-67
2023/10/14 07:10:47;;;;;;;4.35;0.75;;;;;;;12.18;100.00;99887.06;7396100;19;20083;-68
2023/10/14 07:13:17;;;;;;;2.03;1.10;;;;;;;12.13;100.00;99873.25;7395312;19;20011;-68
2023/10/14 07:15:46;;;;;;;2.20;1.08;;;;;;;12.15;100.00;99867.91;7394288;19;20010;-68
2023/10/14 07:18:22;;;;;;;2.95;1.42;;;;;;;12.12;100.00;99866.28;7394853;19;20489;-67
2023/10/14 07:20:59;;;;;;;5.30;1.67;;;;;;;12.12;100.00;99895.19;7395812;19;20041;-67
2023/10/14 07:23:28;;;;;;;4.05;1.30;;;;;;;12.18;100.00;99896.69;7393897;19;20006;-67
2023/10/14 07:25:57;;;;;;;4.22;1.38;;;;;;;12.17;100.00;99890.59;7395728;19;20078;-68
2023/10/14 07:28:26;;;;;;;3.65;1.45;;;;;;;12.20;100.00;99900.97;7394569;19;20073;-68
2023/10/14 07:30:56;;;;;;;4.70;1.90;;;;;;;12.24;100.00;99908.75;7395506;19;20090;-68
2023/10/14 07:33:27;;;;;;;6.15;1.25;;;;;;;12.24;100.00;99906.97;7394296;19;20021;-68
2023/10/14 07:35:56;;;;;;;2.33;1.38;;;;;;;12.26;100.00;99936.69;7396096;19;20014;-69
2023/10/14 07:38:24;;;;;;;7.57;1.83;;;;;;;12.26;100.00;99918.28;7393651;19;20018;-68
2023/10/14 07:41:01;;;;;;;6.65;1.50;;;;;;;12.26;100.00;99928.81;7396472;19;20089;-68
2023/10/14 07:43:33;;;;;;;8.35;1.65;;;;;;;12.27;100.00;99922.63;7394790;19;20018;-68
2023/10/14 07:46:02;;;;;;;2.03;1.02;;;;;;;12.26;100.00;99927.94;7395822;19;20019;-69
2023/10/14 07:48:33;;;;;;;6.95;1.02;;;;;;;12.26;100.00;99930.56;7393241;19;20074;-70
2023/10/14 07:51:06;;;;;;;6.95;1.20;;;;;;;12.26;100.00;99931.44;7395573;19;20014;-67
2023/10/14 07:53:35;;;;;;;2.85;1.10;;;;;;;12.27;100.00;99940.16;7393380;19;20377;-69
2023/10/14 07:56:06;;;;;;;3.35;1.00;;;;;;;12.28;100.00;99947.16;7395588;19;20007;-69
2023/10/14 07:58:36;;;;;;;6.60;1.00;;;;;;;12.29;100.00;99969.91;7393194;19;20370;-68
2023/10/14 08:01:06;;;;;;;3.95;1.15;;;;;;;12.25;100.00;99958.66;7394683;19;20078;-68
2023/10/14 08:03:38;;;;;;;3.05;1.50;;;;;;;12.24;100.00;99963.97;7393187;19;20038;-68
2023/10/14 08:06:10;;;;;;;4.50;1.10;;;;;;;12.24;100.00;99979.75;7394359;19;20015;-69
2023/10/14 08:08:47;;;;;;;7.68;1.50;;;;;;;12.26;100.00;99983.16;7392957;19;20017;-69
2023/10/14 08:11:16;;;;;;;4.85;2.00;;;;;;;12.32;100.00;99990.81;7395736;19;20015;-68
2023/10/14 08:13:45;;;;;;;3.97;1.23;;;;;;;12.37;100.00;99997.59;7394878;19;20015;-69
2023/10/14 08:16:15;;;;;;;3.50;1.35;;;;;;;12.43;100.00;100009.63;7392756;19;20010;-68
2023/10/14 08:18:46;;;;;;;3.83;1.55;;;;;;;12.48;100.00;100012.94;7392205;19;20018;-68
2023/10/14 08:21:15;;;;;;;5.55;1.80;;;;;;;12.54;100.00;100007.41;7394983;19;20037;-67
2023/10/14 08:23:43;;;;;;;5.28;1.52;;;;;;;12.58;99.42;100000.25;7395077;19;20014;-68
2023/10/14 08:26:13;;;;;;;3.22;1.65;;;;;;;12.62;98.26;100022.88;7393665;19;20481;-68
2023/10/14 08:28:42;;;;;;;6.88;1.30;;;;;;;12.64;98.29;100081.56;7392409;19;20015;-68
2023/10/14 08:31:11;;;;;;;5.70;1.02;;;;;;;12.66;97.93;100053.44;7393951;19;20037;-68
2023/10/14 08:33:40;;;;;;;6.72;1.20;;;;;;;12.65;96.24;100035.06;7394212;19;20018;-69
2023/10/14 08:36:11;;;;;;;7.05;1.35;;;;;;;12.65;95.44;100056.09;7394151;19;20036;-68
2023/10/14 08:38:40;;;;;;;4.97;1.00;;;;;;;12.68;97.32;100070.00;7392424;19;20070;-67
2023/10/14 08:41:08;;;;;;;6.82;1.75;;;;;;;12.69;96.12;100066.44;7393543;19;20018;-68
2023/10/14 08:43:49;;;;;;;7.40;1.90;;;;;;;12.73;97.43;100069.81;7391448;19;20074;-68
2023/10/14 08:46:29;;;;;;;6.18;1.63;;;;;;;12.73;94.67;100067.19;7401166;19;20011;-69
2023/10/14 08:48:58;;;;;;;3.97;1.35;;;;;;;12.75;96.47;100070.63;7398627;19;20427;-68
2023/10/14 08:51:30;;;;;;;6.60;1.35;;;;;;;12.78;95.49;100077.53;7401311;19;20074;-69
2023/10/14 08:54:00;;;;;;;7.22;1.20;;;;;;;12.78;93.14;100080.16;7398718;19;20078;-69
2023/10/14 08:56:29;;;;;;;7.45;1.35;;;;;;;12.76;91.99;100096.00;7399043;19;20018;-69
2023/10/14 08:59:19;;;;;;;7.75;1.60;;;;;;;12.78;93.11;100101.22;7401298;19;20006;-68
2023/10/14 09:01:57;;;;;;;13.15;2.47;;;;;;;12.79;92.26;100106.41;7401053;19;20014;-68
2023/10/14 09:04:29;;;;;;;7.28;1.40;;;;;;;12.83;92.24;100126.41;7398868;19;20011;-68
2023/10/14 09:07:11;;;;;;;7.32;1.38;;;;;;;12.88;90.10;100131.50;7398497;19;20029;-68
2023/10/14 09:09:39;;;;;;;4.97;1.30;;;;;;;12.93;89.37;100136.56;7400536;19;20027;-69
2023/10/14 09:12:07;;;;;;;7.95;1.45;;;;;;;12.96;88.84;100136.44;7399776;19;20082;-66
2023/10/14 09:14:36;;;;;;;6.38;1.23;;;;;;;13.02;90.27;100130.94;7397880;19;20014;-67
2023/10/14 09:17:08;;;;;;;8.02;1.77;;;;;;;13.07;88.46;100131.59;7397607;19;20018;-66
2023/10/14 09:19:45;;;;;;;7.97;1.55;;;;;;;13.12;85.94;100134.03;7399864;19;20069;-67
2023/10/14 09:22:24;;;;;;;7.00;1.45;;;;;;;13.17;87.16;100134.72;7399833;19;20501;-67
2023/10/14 09:24:53;;;;;;;5.65;1.30;;;;;;;13.21;82.81;100138.91;7400423;19;20074;-67
2023/10/14 09:27:22;;;;;;;8.50;2.00;;;;;;;13.26;85.08;100149.25;7399145;19;20018;-67
2023/10/14 09:29:51;;;;;;;6.82;1.52;;;;;;;13.27;85.12;100145.69;7399692;19;20020;-66
2023/10/14 09:32:21;;;;;;;6.70;1.50;;;;;;;13.32;84.12;100154.25;7399857;19;20082;-67
2023/10/14 09:34:51;;;;;;;5.38;1.63;;;;;;;13.34;77.15;100171.72;7396965;19;20013;-66
2023/10/14 09:37:21;;;;;;;7.63;1.50;;;;;;;13.39;82.49;100165.44;7396491;19;20023;-66
2023/10/14 09:39:57;;;;;;;9.77;1.67;;;;;;;13.42;78.68;100166.16;7399609;19;20018;-67
2023/10/14 09:42:27;;;;;;;4.93;1.15;;;;;;;13.53;82.48;100176.22;7398866;19;20512;-66
2023/10/14 09:44:57;;;;;;;7.20;1.75;;;;;;;13.62;80.28;100207.47;7396798;19;20025;-67
2023/10/14 09:47:26;;;;;;;7.57;2.17;;;;;;;13.68;79.08;100187.88;7397949;19;20077;-67
2023/10/14 09:49:55;;;;;;;9.85;1.52;;;;;;;13.70;72.19;100201.88;7398681;19;20466;-67
2023/10/14 09:52:25;;;;;;;7.85;1.73;;;;;;;13.68;71.87;100198.44;7396564;19;20513;-69
2023/10/14 09:54:57;;;;;;;7.00;1.27;;;;;;;13.65;76.60;100199.41;7396388;19;20432;-67
2023/10/14 09:57:29;;;;;;;7.32;1.45;;;;;;;13.61;75.02;100199.59;7398619;19;20074;-66
2023/10/14 09:59:59;;;;;;;8.75;1.63;;;;;;;13.56;71.44;100201.59;7398432;19;20482;-66
2023/10/14 10:02:29;;;;;;;7.78;1.95;;;;;;;13.50;74.75;100213.25;7398445;19;20066;-66
2023/10/14 10:04:59;;;;;;;11.57;1.27;;;;;;;13.45;72.97;100209.97;7396193;19;20158;-66
2023/10/14 10:07:45;;;;;;;11.45;2.03;;;;;;;13.40;66.49;100198.78;7395669;19;20074;-66
2023/10/14 10:10:21;;;;;;;8.52;1.52;;;;;;;13.40;72.13;100214.56;7396294;19;20014;-66
2023/10/14 10:12:55;;;;;;;8.32;1.70;;;;;;;13.39;73.87;100226.88;7396474;19;20025;-67
2023/10/14 10:15:26;;;;;;;8.27;1.55;;;;;;;13.39;66.65;100226.88;7396419;19;20070;-66
2023/10/14 10:18:12;;;;;;;8.45;2.65;;;;;;;13.46;67.29;100233.63;7396666;19;20419;-67
2023/10/14 10:20:50;;;;;;;5.50;1.38;;;;;;;13.59;64.39;100243.66;7396722;19;20092;-68
2023/10/14 10:23:18;;;;;;;6.97;1.08;;;;;;;13.70;63.10;100236.13;7398212;19;20078;-69
2023/10/14 10:25:49;;;;;;;6.85;1.10;;;;;;;13.76;64.70;100229.72;7398252;19;20095;-67
2023/10/14 10:28:42;;;;;;;12.63;1.92;;;;;;;13.82;63.71;100242.66;7395827;19;20021;-67
2023/10/14 10:31:12;;;;;;;11.15;2.83;;;;;;;13.89;69.63;100246.75;7397334;19;20378;-66
2023/10/14 10:33:56;;;;;;;9.45;2.58;;;;;;;13.93;63.54;100244.84;7396963;19;20010;-66
2023/10/14 10:36:25;;;;;;;;;;;;;;;13.92;63.27;100261.56;7397774;19;20501;-66
2023/10/14 10:38:58;;;;;;;7.65;1.33;;;;;;;13.86;63.94;100262.69;7394649;19;19919;-67
2023/10/14 10:41:30;;;;;;;7.88;1.33;;;;;;;13.83;68.34;100258.41;7395936;19;20090;-68
2023/10/14 10:44:05;;;;;;;5.15;1.23;;;;;;;13.78;62.29;100249.84;7397054;19;20066;-67
2023/10/14 10:46:40;;;;;;;4.90;1.17;;;;;;;13.77;67.73;100261.28;7397558;19;20016;-67
2023/10/14 10:49:10;;;;;;;10.35;1.42;;;;;;;13.75;61.29;100263.16;7394631;19;20480;-68
2023/10/14 10:51:40;;;;;;;12.65;2.38;;;;;;;13.81;66.44;100249.72;7396901;19;20037;-68
2023/10/14 10:54:10;;;;;;;8.27;2.03;;;;;;;13.90;67.08;100263.41;7397403;19;20014;-68
2023/10/14 10:56:41;;;;;;;4.75;1.15;;;;;;;13.95;57.46;100269.34;7397025;19;20146;-67
2023/10/14 10:59:07;;;;;;;9.02;1.33;;;;;;;14.05;65.28;100262.72;7396473;19;20031;-70
2023/10/14 11:01:36;;;;;;;10.98;1.88;;;;;;;14.18;66.80;100263.91;7397017;19;20010;-67
2023/10/14 11:04:08;;;;;;;5.90;0.95;;;;;;;14.29;62.49;100274.00;7395318;19;20074;-68
2023/10/14 11:06:37;;;;;;;6.40;0.85;;;;;;;14.33;60.26;100291.41;7393824;19;20408;-68
2023/10/14 11:09:06;;;;;;;5.60;1.23;;;;;;;14.39;64.21;100266.50;7395235;19;20035;-68
2023/10/14 11:11:37;;;;;;;6.18;1.40;;;;;;;14.42;63.89;100269.03;7396126;19;20035;-68
2023/10/14 11:14:18;;;;;;;7.18;1.58;;;;;;;14.50;61.39;100271.31;7396068;19;20031;-68
2023/10/14 11:16:52;;;;;;;4.63;0.88;;;;;;;14.58;64.86;100265.69;7395798;19;20488;-68
2023/10/14 11:19:20;;;;;;;7.75;1.90;;;;;;;14.66;62.54;100275.00;7396215;19;20014;-69
2023/10/14 11:21:49;;;;;;;6.15;1.50;;;;;;;14.73;64.78;100278.19;7395754;19;20023;-69
2023/10/14 11:24:18;;;;;;;10.25;1.25;;;;;;;14.76;60.54;100283.34;7395167;19;20014;-69
2023/10/14 11:26:47;;;;;;;7.88;1.17;;;;;;;14.83;63.67;100276.81;7395846;19;20078;-69
2023/10/14 11:29:18;;;;;;;8.15;1.15;;;;;;;14.94;62.69;100264.94;7395706;19;20073;-70
2023/10/14 11:31:47;;;;;;;9.23;1.38;;;;;;;15.03;62.83;100268.91;7395566;19;20011;-69
2023/10/14 11:34:15;;;;;;;7.85;1.35;;;;;;;15.11;61.49;100272.91;7394814;19;20023;-69
2023/10/14 11:36:44;;;;;;;7.95;1.65;;;;;;;15.18;60.08;100273.44;7395408;19;20018;-69
2023/10/14 11:39:14;;;;;;;6.43;1.13;;;;;;;15.29;59.74;100270.28;7393797;19;20477;-69
2023/10/14 11:41:43;;;;;;;4.40;1.15;;;;;;;15.39;59.84;100297.13;7395480;19;20015;-69
2023/10/14 11:44:17;;;;;;;6.88;1.38;;;;;;;15.46;58.42;100299.38;7393711;19;20015;-69
2023/10/14 11:46:50;;;;;;;4.65;0.93;;;;;;;15.49;57.22;100285.16;7395118;19;20011;-69
2023/10/14 11:49:20;;;;;;;3.35;0.75;;;;;;;15.48;54.14;100286.09;7394806;19;20011;-69
2023/10/14 11:51:49;;;;;;;4.70;1.23;;;;;;;15.55;58.35;100281.34;7395021;19;20022;-69
2023/10/14 11:54:17;;;;;;;7.35;1.10;;;;;;;15.57;58.67;100303.28;7394537;19;20435;-69